Time;durP1;ratioP1;P1;durP2;ratioP2;P2;SDS_P1;SDS_P2;PMS_P1;PMS_P2;Temp;Humidity;BMP_temperature;BMP_pressure;BME280_temperature;BME280_humidity;BME280_pressure;Samples;Min_cycle;Max_cycle;Signal;HPM_P1;HPM_P2
2023/01/16 04:51:52;;;;;;;0.50;0.50;;;;;;;3.83;82.39;97676.50;5008722;28;20073;-74
2023/01/16 04:54:19;;;;;;;1.90;1.80;;;;;;;3.84;83.14;97673.91;5008695;28;20094;-75
2023/01/16 04:56:44;;;;;;;0.50;0.50;;;;;;;3.84;83.30;97675.63;5008658;28;20086;-73
2023/01/16 04:59:10;;;;;;;0.50;0.50;;;;;;;3.89;83.38;97675.50;5008614;28;20034;-73
2023/01/16 05:01:37;;;;;;;0.50;0.50;;;;;;;3.88;83.72;97690.09;5008337;28;20022;-74
2023/01/16 05:04:08;;;;;;;0.52;0.52;;;;;;;3.94;83.89;97686.50;5008316;28;20054;-72
2023/01/16 05:06:34;;;;;;;0.50;0.50;;;;;;;3.97;84.29;97686.44;5008496;28;20099;-73
2023/01/16 05:09:00;;;;;;;0.60;0.60;;;;;;;4.07;84.41;97694.75;5007068;28;20030;-72
2023/01/16 05:11:26;;;;;;;8.13;2.50;;;;;;;4.10;84.39;97692.09;5008070;28;20023;-71
2023/01/16 05:13:51;;;;;;;0.50;0.50;;;;;;;4.15;83.60;97700.53;5008428;28;20037;-72
2023/01/16 05:16:17;;;;;;;0.50;0.50;;;;;;;4.22;83.83;97703.75;5008136;28;20040;-71
2023/01/16 05:18:42;;;;;;;0.50;0.50;;;;;;;4.19;83.74;97698.69;5007996;28;20053;-72
2023/01/16 05:21:08;;;;;;;0.50;0.50;;;;;;;4.25;84.11;97695.16;5008257;28;20022;-73
2023/01/16 05:23:34;;;;;;;0.50;0.50;;;;;;;4.21;83.72;97692.66;5008082;28;20042;-72
2023/01/16 05:26:01;;;;;;;0.60;0.60;;;;;;;4.21;84.15;97702.94;5006800;28;20027;-72
2023/01/16 05:28:27;;;;;;;0.50;0.50;;;;;;;4.17;83.84;97709.00;5006723;28;20049;-67
2023/01/16 05:30:52;;;;;;;0.50;0.50;;;;;;;4.12;84.26;97715.16;5007781;28;20022;-74
2023/01/16 05:33:18;;;;;;;0.50;0.50;;;;;;;4.02;84.05;97706.84;5007731;28;20024;-74
2023/01/16 05:35:45;;;;;;;15.63;4.70;;;;;;;3.96;84.41;97721.50;5007790;28;20475;-75
2023/01/16 05:38:11;;;;;;;1.60;1.50;;;;;;;3.87;84.53;97723.47;5007958;28;20033;-72
2023/01/16 05:40:37;;;;;;;0.60;0.60;;;;;;;3.79;84.97;97719.38;5007780;28;20031;-72
2023/01/16 05:43:03;;;;;;;0.50;0.50;;;;;;;3.75;85.53;97727.19;5007744;28;20030;-72
2023/01/16 05:45:28;;;;;;;0.50;0.50;;;;;;;3.73;86.05;97740.06;5007974;28;20022;-73
2023/01/16 05:47:54;;;;;;;0.50;0.50;;;;;;;3.68;85.96;97734.19;5007798;28;20023;-73
2023/01/16 05:50:19;;;;;;;0.50;0.50;;;;;;;3.64;86.33;97743.69;5007622;28;20049;-74
2023/01/16 05:52:44;;;;;;;0.50;0.50;;;;;;;3.57;86.44;97731.88;5006402;28;20030;-73
2023/01/16 05:55:10;;;;;;;0.50;0.50;;;;;;;3.58;86.34;97741.25;5022563;28;20022;-74
2023/01/16 05:57:35;;;;;;;0.50;0.50;;;;;;;3.53;86.61;97748.22;5007502;28;20030;-74
2023/01/16 06:00:01;;;;;;;0.50;0.50;;;;;;;3.48;86.87;97745.75;5007659;28;20062;-74
2023/01/16 06:02:26;;;;;;;0.50;0.50;;;;;;;3.43;87.08;97747.56;5007054;28;20093;-74
2023/01/16 06:04:52;;;;;;;0.50;0.50;;;;;;;3.51;87.29;97757.66;5007500;28;20107;-74
2023/01/16 06:07:17;;;;;;;0.50;0.50;;;;;;;3.52;87.77;97756.78;5007608;28;20022;-73
2023/01/16 06:09:43;;;;;;;0.50;0.50;;;;;;;3.51;88.15;97757.66;5007164;28;20038;-72
2023/01/16 06:12:16;;;;;;;0.50;0.50;;;;;;;3.53;87.89;97767.00;5007128;28;20049;-74
2023/01/16 06:14:45;;;;;;;0.50;0.50;;;;;;;3.46;88.30;97761.19;5022551;28;20378;-74
2023/01/16 06:17:14;;;;;;;0.50;0.50;;;;;;;3.50;88.27;97766.25;5006913;28;20018;-74
2023/01/16 06:19:40;;;;;;;0.50;0.50;;;;;;;3.45;88.25;97763.78;5007235;28;20045;-73
2023/01/16 06:22:06;;;;;;;0.50;0.50;;;;;;;3.41;88.27;97770.69;5006592;28;20081;-74
2023/01/16 06:24:31;;;;;;;0.50;0.50;;;;;;;3.44;88.30;97778.31;5006940;28;20445;-73
2023/01/16 06:26:57;;;;;;;0.40;0.40;;;;;;;3.36;88.68;97757.13;5006805;28;20030;-75
2023/01/16 06:29:25;;;;;;;0.40;0.40;;;;;;;3.33;88.84;97762.31;5006741;28;20022;-73
2023/01/16 06:31:51;;;;;;;0.50;0.50;;;;;;;3.35;88.86;97766.53;5006526;28;20041;-74
2023/01/16 06:34:16;;;;;;;0.50;0.50;;;;;;;3.32;88.86;97768.34;5006681;28;20227;-72
2023/01/16 06:36:42;;;;;;;0.50;0.50;;;;;;;3.26;88.74;97760.78;5006646;28;20057;-73
2023/01/16 06:39:12;;;;;;;0.50;0.50;;;;;;;3.26;88.95;97765.91;5006423;28;20053;-74
2023/01/16 06:41:41;;;;;;;0.50;0.50;;;;;;;3.21;89.17;97773.69;5005100;28;20525;-73
2023/01/16 06:44:07;;;;;;;0.50;0.50;;;;;;;3.17;89.17;97775.47;5004969;28;20035;-74
2023/01/16 06:46:35;;;;;;;0.50;0.50;;;;;;;3.18;89.30;97779.72;5006530;28;20049;-73
2023/01/16 06:49:01;;;;;;;1.38;1.38;;;;;;;3.11;89.56;97775.59;5006357;28;20030;-72
2023/01/16 06:51:27;;;;;;;0.50;0.50;;;;;;;3.09;89.48;97769.66;5006052;28;20050;-74
2023/01/16 06:53:52;;;;;;;0.50;0.50;;;;;;;3.12;89.81;97791.81;5005969;28;20082;-73
2023/01/16 06:56:18;;;;;;;0.50;0.50;;;;;;;3.05;89.85;97786.81;5006745;28;20030;-74
2023/01/16 06:58:44;;;;;;;1.83;1.73;;;;;;;3.10;89.80;97791.84;5006373;28;20041;-73
2023/01/16 07:01:09;;;;;;;0.50;0.50;;;;;;;3.10;90.09;97789.28;5006366;28;20033;-75
2023/01/16 07:03:35;;;;;;;0.50;0.50;;;;;;;3.09;89.97;97791.00;5006130;28;20022;-74
2023/01/16 07:06:01;;;;;;;0.60;0.60;;;;;;;3.12;90.12;97802.91;5006096;28;20022;-74
2023/01/16 07:08:27;;;;;;;0.50;0.50;;;;;;;3.12;90.23;97802.06;5004811;28;20026;-74
2023/01/16 07:10:52;;;;;;;0.50;0.50;;;;;;;3.08;90.24;97793.63;5006098;28;20045;-74
2023/01/16 07:13:22;;;;;;;0.50;0.50;;;;;;;3.10;89.99;97796.97;5006264;28;20471;-76
2023/01/16 07:24:18;;;;;;;0.50;0.50;;;;;;;3.03;90.36;97819.34;5023538;28;20061;-73
2023/01/16 07:26:47;;;;;;;0.60;0.60;;;;;;;3.04;90.36;97815.03;5006796;28;20025;-73
2023/01/16 07:29:13;;;;;;;0.50;0.50;;;;;;;3.00;90.20;97818.53;5023297;28;20045;-74
2023/01/16 07:31:39;;;;;;;0.60;0.60;;;;;;;2.98;90.39;97821.13;5006599;28;20026;-75
2023/01/16 07:34:05;;;;;;;0.50;0.50;;;;;;;3.01;90.30;97825.34;5023227;28;20041;-74
2023/01/16 07:36:30;;;;;;;0.50;0.50;;;;;;;3.03;90.25;97826.19;5023383;28;20213;-72
2023/01/16 07:38:55;;;;;;;0.50;0.50;;;;;;;3.00;90.23;97839.06;5023144;28;20030;-73
2023/01/16 07:41:21;;;;;;;0.50;0.50;;;;;;;3.00;89.90;97836.50;5006637;28;20045;-73
2023/01/16 07:43:46;;;;;;;0.50;0.50;;;;;;;3.01;89.96;97841.59;5023071;28;20061;-74
2023/01/16 07:46:12;;;;;;;0.50;0.50;;;;;;;2.94;89.97;97829.78;5023077;28;20028;-73
2023/01/16 07:48:37;;;;;;;0.50;0.50;;;;;;;3.02;89.81;97850.13;5006420;28;20033;-73
2023/01/16 07:51:03;;;;;;;0.50;0.50;;;;;;;3.02;90.11;97847.56;5022632;28;20054;-72
2023/01/16 07:53:29;;;;;;;0.50;0.50;;;;;;;3.00;90.19;97844.19;5023169;28;20542;-74
2023/01/16 07:55:57;;;;;;;0.50;0.50;;;;;;;3.02;89.76;97856.06;5007170;28;20475;-73
2023/01/16 07:58:22;;;;;;;0.50;0.50;;;;;;;3.01;89.73;97859.53;5005703;28;20030;-73
2023/01/16 08:00:49;;;;;;;0.50;0.50;;;;;;;3.06;89.53;97867.13;5020516;28;20093;-73
2023/01/16 08:03:15;;;;;;;0.50;0.50;;;;;;;3.04;89.84;97877.41;5005382;28;20081;-74
2023/01/16 08:05:43;;;;;;;0.50;0.50;;;;;;;3.07;89.73;97873.94;5006725;28;20057;-74
2023/01/16 08:08:09;;;;;;;1.25;1.20;;;;;;;3.08;89.61;97873.91;5008218;28;20027;-73
2023/01/16 08:10:34;;;;;;;0.50;0.50;;;;;;;3.10;89.97;97879.00;5009511;28;20037;-73
2023/01/16 08:13:00;;;;;;;0.50;0.50;;;;;;;3.16;89.92;97883.19;5008236;28;20094;-74
2023/01/16 08:15:25;;;;;;;0.50;0.50;;;;;;;3.17;90.31;97883.16;5009501;28;20045;-73
2023/01/16 08:17:51;;;;;;;0.50;0.50;;;;;;;3.23;90.12;97884.75;5009225;28;20081;-74
2023/01/16 08:20:16;;;;;;;0.50;0.50;;;;;;;3.26;89.94;97877.00;5009628;28;20018;-74
2023/01/16 08:22:46;;;;;;;0.50;0.50;;;;;;;3.35;89.85;97881.94;5009189;28;20116;-74
2023/01/16 08:25:12;;;;;;;1.25;1.25;;;;;;;3.40;90.00;97894.69;5009430;28;20018;-74
2023/01/16 08:27:38;;;;;;;0.50;0.50;;;;;;;3.46;90.07;97883.47;5009319;28;20083;-73
2023/01/16 08:30:05;;;;;;;0.50;0.50;;;;;;;3.49;89.76;97893.66;5009076;28;20018;-73
2023/01/16 08:32:30;;;;;;;0.50;0.50;;;;;;;3.56;90.11;97899.50;5007596;28;20029;-74
2023/01/16 08:34:56;;;;;;;0.50;0.50;;;;;;;3.61;89.94;97901.97;5009283;28;20030;-74
2023/01/16 08:37:21;;;;;;;3.42;3.22;;;;;;;3.66;89.90;97911.25;5009085;28;20036;-73
2023/01/16 08:39:47;;;;;;;0.50;0.50;;;;;;;3.75;90.20;97917.94;5009128;28;20030;-74
2023/01/16 08:53:09;;;;;;;0.50;0.50;;;;;;;4.09;89.64;97906.94;5008693;28;20044;-73
2023/01/16 08:55:34;;;;;;;0.50;0.50;;;;;;;4.12;89.42;97905.19;5007399;28;20150;-74
2023/01/16 08:58:00;;;;;;;0.50;0.50;;;;;;;4.15;89.11;97911.09;5007293;28;20117;-73
2023/01/16 09:00:27;;;;;;;0.50;0.50;;;;;;;4.17;89.18;97916.22;5007179;28;20019;-74
2023/01/16 09:02:53;;;;;;;0.80;0.80;;;;;;;4.19;89.02;97917.00;5008254;28;20050;-73
2023/01/16 09:05:19;;;;;;;0.50;0.50;;;;;;;4.19;88.72;97905.00;5008711;28;20490;-73
2023/01/16 09:07:45;;;;;;;0.50;0.50;;;;;;;4.22;89.11;97906.66;5008665;28;20031;-74
2023/01/16 09:10:11;;;;;;;0.50;0.50;;;;;;;4.28;88.95;97903.13;5006962;28;20475;-74
2023/01/16 09:15:21;;;;;;;0.50;0.50;;;;;;;4.34;89.33;97908.09;5008630;28;20080;-73
2023/01/16 09:17:46;;;;;;;3.17;2.97;;;;;;;4.41;89.38;97925.06;5022613;28;20018;-73
2023/01/16 09:20:12;;;;;;;0.50;0.50;;;;;;;4.45;89.20;97921.53;5008051;28;20018;-73
2023/01/16 09:22:37;;;;;;;0.50;0.50;;;;;;;4.49;89.34;97922.28;5008113;28;20034;-74
2023/01/16 09:25:03;;;;;;;0.50;0.50;;;;;;;4.49;89.43;97916.34;5008279;28;20023;-73
2023/01/16 09:27:28;;;;;;;0.50;0.50;;;;;;;4.53;89.22;97926.50;5008072;28;20022;-73
2023/01/16 09:29:54;;;;;;;0.50;0.50;;;;;;;4.58;88.65;97926.38;5006544;28;20026;-73
2023/01/16 09:32:20;;;;;;;0.50;0.50;;;;;;;4.57;88.54;97925.53;5007594;28;20026;-73
2023/01/16 09:34:45;;;;;;;0.50;0.50;;;;;;;4.60;88.45;97934.88;5023359;28;20057;-73
2023/01/16 09:37:11;;;;;;;0.50;0.50;;;;;;;4.53;88.21;97931.63;5006737;28;20022;-74
2023/01/16 09:39:37;;;;;;;0.47;0.47;;;;;;;4.59;88.05;97935.78;5007968;28;20420;-73
2023/01/16 09:45:30;;;;;;;0.40;0.40;;;;;;;4.49;87.73;97918.91;5008021;28;20102;-74
2023/01/16 09:48:04;;;;;;;0.43;0.43;;;;;;;4.59;88.04;97933.22;5006275;28;20102;-73
2023/01/16 09:50:30;;;;;;;0.50;0.50;;;;;;;4.57;87.79;97943.53;5007462;28;20050;-73
2023/01/16 09:58:37;;;;;;;0.50;0.50;;;;;;;4.58;87.92;97952.09;5007759;28;20041;-73
2023/01/16 10:01:08;;;;;;;;;;;;;;;4.60;86.52;97945.16;5007821;28;20033;-73
2023/01/16 10:03:34;;;;;;;0.50;0.50;;;;;;;4.58;87.15;97955.47;5005885;28;19976;-74
2023/01/16 10:06:29;;;;;;;0.50;0.50;;;;;;;4.60;87.95;97955.44;5007469;28;20034;-73
2023/01/16 10:09:14;;;;;;;0.50;0.50;;;;;;;4.61;87.88;97957.16;5006192;28;20034;-73
2023/01/16 10:11:45;;;;;;;0.50;0.50;;;;;;;4.62;87.55;97943.41;5005856;28;20026;-73
2023/01/16 10:14:41;;;;;;;0.80;0.80;;;;;;;4.61;87.55;97936.59;5022301;28;20060;-73
2023/01/16 10:17:19;;;;;;;0.50;0.50;;;;;;;4.71;87.60;97945.75;5007413;28;20037;-73
2023/01/16 10:19:56;;;;;;;3.38;2.67;;;;;;;4.86;87.99;97945.44;5007125;28;20042;-72
2023/01/16 10:23:03;;;;;;;0.50;0.50;;;;;;;5.21;88.74;97944.53;5007013;28;20030;-74
2023/01/16 10:25:46;;;;;;;0.50;0.50;;;;;;;5.19;87.17;97928.28;5003872;28;20109;-73
2023/01/16 10:28:42;;;;;;;0.50;0.50;;;;;;;5.28;87.18;97940.06;5005944;28;20030;-72
2023/01/16 10:31:21;;;;;;;0.73;0.73;;;;;;;5.28;87.07;97931.50;5006722;28;20033;-72
2023/01/16 10:34:09;;;;;;;0.50;0.50;;;;;;;5.31;87.14;97926.25;5021938;28;20372;-74
2023/01/16 10:36:40;;;;;;;0.50;0.50;;;;;;;5.37;86.64;97938.97;5005174;28;20058;-73
2023/01/16 10:39:10;;;;;;;0.50;0.50;;;;;;;5.36;86.67;97934.72;5005766;28;20097;-73
2023/01/16 10:50:28;;;;;;;0.50;0.50;;;;;;;5.35;87.30;97930.47;5143683;27;20723;-67
2023/01/16 10:52:54;;;;;;;0.40;0.40;;;;;;;5.61;88.04;97925.47;5143765;28;20031;-67
2023/01/16 10:55:19;;;;;;;28.77;4.57;;;;;;;5.84;87.83;97914.50;5143874;28;20052;-67
2023/01/16 10:57:52;;;;;;;0.50;0.50;;;;;;;5.99;85.93;97923.50;5143659;27;20025;-68
2023/01/16 11:00:31;;;;;;;0.50;0.50;;;;;;;6.15;85.70;97905.88;5143792;28;20023;-66
2023/01/16 11:03:00;;;;;;;0.40;0.40;;;;;;;6.30;84.74;97911.44;5143593;27;20080;-68
2023/01/16 11:05:34;;;;;;;0.50;0.50;;;;;;;6.44;82.69;97929.91;5143680;27;20079;-67
2023/01/16 11:08:09;;;;;;;0.50;0.50;;;;;;;6.56;82.06;97922.69;5143433;28;20030;-67
2023/01/16 11:10:35;;;;;;;0.50;0.50;;;;;;;6.45;81.00;97933.34;5143579;28;20114;-68
2023/01/16 11:18:53;;;;;;;0.50;0.50;;;;;;;6.45;79.69;97910.13;5099738;28;20083;-67
2023/01/16 11:21:30;;;;;;;0.50;0.50;;;;;;;6.55;79.58;97914.09;5099911;28;20135;-69
2023/01/16 11:24:23;;;;;;;0.50;0.50;;;;;;;6.91;79.29;97912.94;5099845;28;20029;-67
2023/01/16 11:26:54;;;;;;;0.50;0.50;;;;;;;7.23;78.29;97912.72;5089042;28;20036;-68
2023/01/16 11:29:23;;;;;;;0.50;0.50;;;;;;;7.46;76.92;97916.22;5099752;28;20039;-66
2023/01/16 11:31:55;;;;;;;0.50;0.50;;;;;;;7.03;77.42;97900.50;5099516;28;20027;-68
2023/01/16 11:34:27;;;;;;;0.50;0.50;;;;;;;6.49;78.11;97916.88;5099870;28;20020;-68
2023/01/16 11:37:03;;;;;;;0.50;0.50;;;;;;;5.94;78.36;97913.34;5099743;28;20159;-68
2023/01/16 11:39:32;;;;;;;0.32;0.32;;;;;;;5.67;80.37;97915.00;5082986;28;20424;-68
2023/01/16 11:46:01;;;;;;;0.50;0.50;;;;;;;5.54;81.30;97917.09;5099520;28;20028;-67
2023/01/16 11:47:43;;;;;;;1.50;1.50;;;;;;;5.50;82.22;97902.59;5099258;28;20031;-68
2023/01/16 11:50:48;;;;;;;1.45;1.45;;;;;;;5.52;83.12;97896.53;5099282;28;20040;-66
2023/01/16 11:53:13;;;;;;;0.65;0.65;;;;;;;5.45;82.68;97889.84;5058994;28;20094;-67
2023/01/16 11:55:57;;;;;;;0.50;0.50;;;;;;;5.52;83.26;97887.97;5067082;28;20087;-66
2023/01/16 11:58:38;;;;;;;0.50;0.50;;;;;;;5.55;84.37;97886.16;5078834;28;20037;-67
2023/01/16 12:01:12;;;;;;;0.50;0.50;;;;;;;5.60;83.78;97886.00;5069542;28;20025;-66
2023/01/16 12:04:05;;;;;;;0.90;0.90;;;;;;;5.58;83.96;97883.50;5065445;28;20516;-67
2023/01/16 12:06:43;;;;;;;0.60;0.60;;;;;;;5.56;83.89;97894.69;5065575;28;20035;-67
2023/01/16 12:09:11;;;;;;;0.50;0.50;;;;;;;5.52;83.97;97890.53;5065436;28;20033;-67
2023/01/16 12:11:37;;;;;;;0.73;0.73;;;;;;;5.49;83.41;97888.03;5065451;28;20039;-67
2023/01/16 12:14:27;;;;;;;0.50;0.50;;;;;;;5.48;83.90;97891.53;5048831;28;20089;-67
2023/01/16 12:17:16;;;;;;;0.50;0.50;;;;;;;5.49;83.98;97893.19;5065191;28;20037;-67
2023/01/16 12:20:03;;;;;;;0.50;0.50;;;;;;;5.38;84.47;97884.06;5065388;28;20484;-68
2023/01/16 12:22:42;;;;;;;0.50;0.50;;;;;;;5.30;84.31;97871.38;5065276;28;20063;-67
2023/01/16 12:25:20;;;;;;;0.50;0.50;;;;;;;5.42;85.11;97877.94;5126867;28;20043;-67
2023/01/16 12:27:51;;;;;;;0.50;0.50;;;;;;;5.41;84.99;97871.13;5128358;28;20068;-67
2023/01/16 12:30:30;;;;;;;0.50;0.50;;;;;;;5.45;84.55;97870.13;5128194;28;20268;-66
2023/01/16 12:33:13;;;;;;;0.50;0.50;;;;;;;5.37;84.42;97866.91;5128087;28;20020;-65
2023/01/16 12:36:11;;;;;;;0.50;0.50;;;;;;;5.29;83.74;97864.56;5128343;28;20042;-67
2023/01/16 12:38:44;;;;;;;2.35;2.25;;;;;;;5.32;84.73;97863.63;5104340;28;20036;-67
2023/01/16 12:44:32;;;;;;;0.50;0.50;;;;;;;5.26;84.92;97862.06;5128177;28;20057;-67
2023/01/16 12:47:09;;;;;;;0.50;0.50;;;;;;;5.20;84.57;97862.25;5121953;28;20035;-68
2023/01/16 12:49:45;;;;;;;0.50;0.50;;;;;;;5.00;84.43;97861.06;5127842;28;20050;-68
2023/01/16 12:52:34;;;;;;;0.50;0.50;;;;;;;4.95;85.50;97856.03;5127808;28;20047;-69
2023/01/16 12:55:12;;;;;;;0.50;0.50;;;;;;;4.84;85.28;97855.47;5127991;28;20042;-67
2023/01/16 12:58:08;;;;;;;0.50;0.50;;;;;;;4.75;85.37;97848.00;5127674;28;20027;-67
2023/01/16 13:00:44;;;;;;;0.50;0.50;;;;;;;4.68;85.79;97855.88;5127600;28;20019;-66
2023/01/16 13:03:39;;;;;;;0.50;0.50;;;;;;;4.69;86.17;97852.44;5127340;28;20072;-67
2023/01/16 13:06:10;;;;;;;0.50;0.50;;;;;;;4.58;86.12;97850.13;5126355;28;20063;-67
2023/01/16 13:08:46;;;;;;;0.50;0.50;;;;;;;4.48;85.86;97846.09;5127544;28;20032;-67
2023/01/16 13:14:12;;;;;;;0.50;0.50;;;;;;;4.41;85.88;97842.00;5127377;28;20083;-67
2023/01/16 13:17:01;;;;;;;0.50;0.50;;;;;;;4.38;85.99;97844.66;5127290;28;20108;-67
2023/01/16 13:19:31;;;;;;;0.40;0.40;;;;;;;4.34;86.61;97854.16;5127303;28;20016;-67
2023/01/16 13:22:14;;;;;;;1.88;1.77;;;;;;;4.36;86.81;97846.41;5125872;28;20076;-67
2023/01/16 13:24:48;;;;;;;0.40;0.40;;;;;;;4.30;86.95;97840.53;5127271;28;20530;-68
2023/01/16 13:27:20;;;;;;;0.50;0.50;;;;;;;4.26;86.06;97832.94;5127231;28;20075;-67
2023/01/16 13:29:51;;;;;;;0.50;0.50;;;;;;;4.26;86.05;97825.25;5125892;28;20024;-67
2023/01/16 13:32:22;;;;;;;0.60;0.60;;;;;;;4.36;85.52;97826.69;5126988;28;20030;-67
2023/01/16 13:34:59;;;;;;;0.60;0.60;;;;;;;4.36;86.32;97829.25;5127010;28;20038;-67
2023/01/16 13:37:30;;;;;;;0.50;0.50;;;;;;;4.36;86.80;97821.56;5127007;28;20027;-67
2023/01/16 13:40:12;;;;;;;0.60;0.60;;;;;;;4.26;86.23;97817.53;5113176;22;20051;-75
2023/01/16 13:42:48;;;;;;;0.60;0.60;;;;;;;4.17;86.79;97792.94;5104957;28;20043;-73
2023/01/16 13:45:50;;;;;;;0.50;0.50;;;;;;;4.24;87.08;97803.88;5106343;28;20551;-73
2023/01/16 13:48:20;;;;;;;0.50;0.50;;;;;;;4.26;87.31;97802.13;5105932;28;20499;-74
2023/01/16 13:51:16;;;;;;;0.50;0.50;;;;;;;4.19;87.40;97804.84;5088040;28;20039;-73
2023/01/16 13:53:47;;;;;;;0.50;0.50;;;;;;;4.16;87.51;97797.22;5101316;28;20123;-73
2023/01/16 13:56:18;;;;;;;0.60;0.60;;;;;;;4.12;87.30;97795.59;5106305;28;20112;-74
2023/01/16 13:58:47;;;;;;;0.50;0.50;;;;;;;4.13;87.36;97802.44;5104810;28;20035;-74
2023/01/16 14:01:33;;;;;;;0.50;0.50;;;;;;;4.20;87.17;97803.13;5106028;28;20128;-73
2023/01/16 14:04:14;;;;;;;0.50;0.50;;;;;;;4.20;85.80;97821.94;5105652;28;20413;-73
2023/01/16 14:09:03;;;;;;;0.50;0.50;;;;;;;4.11;85.33;97818.75;5105832;28;20117;-73
2023/01/16 14:10:08;;;;;;;0.50;0.50;;;;;;;4.06;85.13;97816.28;5105529;28;20047;-74
2023/01/16 14:13:01;;;;;;;0.50;0.50;;;;;;;4.03;85.20;97818.91;5105674;28;20073;-74
2023/01/16 14:18:55;;;;;;;0.50;0.50;;;;;;;3.97;84.75;97814.78;5105743;28;20080;-73
2023/01/16 14:21:27;;;;;;;0.98;0.98;;;;;;;3.87;84.96;97805.59;5104509;28;20061;-73
2023/01/16 14:24:02;;;;;;;0.50;0.50;;;;;;;3.83;84.83;97799.72;5104191;28;20053;-72
2023/01/16 14:26:39;;;;;;;0.50;0.50;;;;;;;3.72;85.73;97811.06;5105934;28;20023;-73
2023/01/16 14:29:35;;;;;;;0.50;0.50;;;;;;;3.71;86.29;97805.94;5104365;28;20129;-73
2023/01/16 14:32:13;;;;;;;0.50;0.50;;;;;;;3.66;85.74;97808.63;5087405;28;20020;-73
2023/01/16 14:34:45;;;;;;;0.50;0.50;;;;;;;3.59;86.27;97805.34;5105520;28;20027;-71
2023/01/16 14:37:26;;;;;;;0.50;0.50;;;;;;;3.51;86.68;97801.28;5105526;28;20034;-73
2023/01/16 14:39:55;;;;;;;2.35;2.15;;;;;;;3.49;86.58;97811.56;5105391;28;20197;-73
2023/01/16 14:56:33;;;;;;;0.50;0.50;;;;;;;3.51;88.75;97821.78;5105608;28;20027;-74
2023/01/16 14:59:04;;;;;;;0.50;0.50;;;;;;;3.55;89.04;97810.56;5105411;28;20126;-72
2023/01/16 15:02:19;;;;;;;0.50;0.50;;;;;;;3.65;87.99;97811.22;5105350;28;20016;-74
2023/01/16 15:04:55;;;;;;;0.50;0.50;;;;;;;3.59;87.93;97801.94;5087139;28;20059;-74
2023/01/16 15:07:29;;;;;;;0.50;0.50;;;;;;;3.47;87.86;97787.66;5103822;28;20464;-74
2023/01/16 15:09:59;;;;;;;0.50;0.50;;;;;;;3.56;88.08;97796.91;5105119;28;20028;-73
2023/01/16 15:12:37;;;;;;;0.93;0.93;;;;;;;3.53;87.76;97792.66;5104950;28;20028;-72
2023/01/16 15:15:02;;;;;;;0.45;0.45;;;;;;;3.49;87.67;97788.47;5105274;28;20028;-72
2023/01/16 15:23:23;;;;;;;0.40;0.40;;;;;;;3.74;85.42;97795.63;5083360;28;20479;-71
2023/01/16 15:25:48;;;;;;;0.50;0.50;;;;;;;3.68;85.31;97794.03;5105587;28;20024;-72
2023/01/16 15:28:28;;;;;;;1.05;1.05;;;;;;;3.53;86.27;97794.41;5104798;28;20080;-73
2023/01/16 15:30:59;;;;;;;0.50;0.50;;;;;;;3.57;85.92;97783.19;5086867;28;20499;-72
2023/01/16 15:36:35;;;;;;;0.50;0.50;;;;;;;3.63;85.23;97782.19;5107205;28;20071;-74
2023/01/16 15:39:26;;;;;;;2.25;2.15;;;;;;;3.73;85.19;97778.53;5090172;28;20048;-75
2023/01/16 15:47:46;;;;;;;0.50;0.50;;;;;;;3.54;84.93;97763.56;5108516;28;19957;-73
2023/01/16 15:50:50;;;;;;;0.60;0.60;;;;;;;3.54;84.95;97780.69;5107596;28;20488;-71
2023/01/16 15:53:17;;;;;;;0.50;0.50;;;;;;;3.62;84.35;97768.53;5108496;28;20040;-73
2023/01/16 15:55:46;;;;;;;0.50;0.50;;;;;;;3.37;85.00;97756.22;5108419;28;20107;-71
2023/01/16 15:58:16;;;;;;;0.50;0.50;;;;;;;3.38;85.35;97760.50;5108482;28;20020;-73
2023/01/16 16:00:43;;;;;;;0.50;0.50;;;;;;;3.55;84.51;97778.09;5107054;28;20502;-72
2023/01/16 16:03:23;;;;;;;0.50;0.50;;;;;;;3.41;85.37;97768.13;5108147;28;20020;-73
2023/01/16 16:05:56;;;;;;;0.60;0.60;;;;;;;3.50;85.06;97758.56;5108441;28;20016;-71
2023/01/16 16:08:26;;;;;;;0.82;0.82;;;;;;;3.56;84.57;97758.41;5108281;28;20107;-73
2023/01/16 16:13:38;;;;;;;0.50;0.50;;;;;;;3.63;84.03;97752.25;5108172;28;20090;-71
2023/01/16 16:19:00;;;;;;;0.50;0.50;;;;;;;3.50;84.43;97743.97;5107649;28;20035;-73
2023/01/16 16:24:35;;;;;;;0.50;0.50;;;;;;;3.26;86.18;97735.97;5107925;28;20034;-73
2023/01/16 16:27:07;;;;;;;0.50;0.50;;;;;;;3.25;86.78;97733.44;5107848;28;20039;-74
2023/01/16 16:29:34;;;;;;;0.50;0.50;;;;;;;3.28;86.47;97741.06;5107902;28;20024;-74
2023/01/16 16:32:04;;;;;;;0.60;0.60;;;;;;;3.34;86.52;97740.91;5106361;28;20092;-73
2023/01/16 16:34:32;;;;;;;0.60;0.60;;;;;;;3.26;86.12;97737.69;5107578;28;20097;-74
2023/01/16 16:37:00;;;;;;;0.50;0.50;;;;;;;3.21;86.25;97720.66;5089491;28;20026;-75
2023/01/16 16:39:35;;;;;;;0.50;0.50;;;;;;;3.35;86.78;97735.75;5107397;28;20055;-73
2023/01/16 16:42:29;;;;;;;0.50;0.50;;;;;;;3.31;86.03;97730.72;5089186;28;20016;-73
2023/01/16 16:45:07;;;;;;;0.70;0.70;;;;;;;3.21;86.48;97728.38;5106184;28;20076;-73
2023/01/16 16:47:43;;;;;;;0.50;0.50;;;;;;;3.27;86.22;97724.84;5106971;28;20047;-73
2023/01/16 16:50:38;;;;;;;0.50;0.50;;;;;;;3.32;85.97;97729.88;5107085;28;20032;-74
2023/01/16 16:53:14;;;;;;;1.77;1.67;;;;;;;3.62;83.70;97732.59;5105653;28;20031;-74
2023/01/16 16:55:45;;;;;;;0.50;0.50;;;;;;;3.42;84.26;97723.63;5088828;28;20031;-69
2023/01/16 16:58:21;;;;;;;0.50;0.50;;;;;;;3.23;85.64;97712.94;5107064;28;20035;-69
2023/01/16 17:00:47;;;;;;;0.95;0.95;;;;;;;3.24;84.88;97714.66;5105895;28;20016;-72
2023/01/16 17:03:19;;;;;;;0.60;0.60;;;;;;;3.23;85.10;97710.38;5106559;28;20145;-70
2023/01/16 17:05:51;;;;;;;0.70;0.70;;;;;;;3.16;86.15;97699.44;5106989;28;20019;-69
2023/01/16 17:08:22;;;;;;;0.50;0.50;;;;;;;3.16;85.90;97699.44;5106658;28;20028;-71
2023/01/16 17:10:50;;;;;;;0.70;0.70;;;;;;;3.13;86.26;97691.78;5106800;28;20387;-68
2023/01/16 17:13:17;;;;;;;0.50;0.50;;;;;;;3.09;85.95;97685.06;5088492;28;20103;-69
2023/01/16 17:15:44;;;;;;;0.50;0.50;;;;;;;3.26;85.42;97699.22;5106899;28;20020;-68
2023/01/16 17:18:11;;;;;;;0.60;0.60;;;;;;;3.13;85.00;97684.09;5106453;28;20020;-70
2023/01/16 17:20:38;;;;;;;0.50;0.50;;;;;;;3.14;84.91;97696.06;5106841;28;20021;-72
2023/01/16 17:23:09;;;;;;;0.55;0.55;;;;;;;3.02;85.65;97683.50;5106341;28;20027;-70
2023/01/16 17:25:35;;;;;;;0.60;0.60;;;;;;;3.03;85.37;97690.31;5106602;28;20081;-71
2023/01/16 17:28:00;;;;;;;0.50;0.50;;;;;;;2.83;86.41;97683.88;5106476;28;20028;-71
2023/01/16 17:30:25;;;;;;;0.50;0.50;;;;;;;2.79;87.19;97690.81;5105124;28;20028;-70
2023/01/16 17:32:56;;;;;;;0.93;0.93;;;;;;;2.88;86.57;97687.19;5105932;28;20516;-70
2023/01/16 17:35:22;;;;;;;0.60;0.60;;;;;;;2.75;87.31;97680.66;5088158;28;20053;-71
2023/01/16 17:37:47;;;;;;;0.50;0.50;;;;;;;2.81;87.46;97683.09;5104907;28;20035;-70
2023/01/16 17:40:13;;;;;;;0.50;0.50;;;;;;;2.83;87.04;97689.00;5105840;28;20066;-74
2023/01/16 17:45:51;;;;;;;0.50;0.50;;;;;;;3.06;86.09;97685.13;5106582;28;20023;-70
2023/01/16 17:48:18;;;;;;;1.95;1.23;;;;;;;3.07;85.62;97681.66;5106041;28;20024;-70
2023/01/16 17:50:43;;;;;;;0.60;0.60;;;;;;;2.95;85.71;97673.41;5106073;28;20020;-74
2023/01/16 17:53:14;;;;;;;0.50;0.50;;;;;;;3.10;85.23;97677.31;5087542;28;20023;-71
2023/01/16 17:55:52;;;;;;;0.60;0.60;;;;;;;2.89;86.13;97658.13;5104541;28;20040;-74
2023/01/16 17:58:42;;;;;;;0.50;0.50;;;;;;;2.94;86.74;97671.69;5087067;28;20112;-74
2023/01/16 18:01:09;;;;;;;0.52;0.52;;;;;;;2.89;86.37;97653.00;5103868;28;20024;-73
2023/01/16 18:03:34;;;;;;;0.50;0.50;;;;;;;2.91;86.69;97650.41;5105399;28;20028;-74
2023/01/16 18:06:08;;;;;;;0.50;0.50;;;;;;;3.01;86.43;97667.28;5104484;28;20543;-75
2023/01/16 18:08:35;;;;;;;0.50;0.50;;;;;;;3.21;84.71;97642.94;5087310;28;20028;-70
2023/01/16 18:19:22;;;;;;;0.50;0.50;;;;;;;3.07;85.67;97666.28;5062689;28;20080;-72
2023/01/16 18:21:59;;;;;;;0.50;0.50;;;;;;;3.18;85.17;97654.09;5045972;28;20032;-70
2023/01/16 18:24:49;;;;;;;0.50;0.50;;;;;;;3.09;85.16;97656.84;5045958;28;20459;-73
2023/01/16 18:27:16;;;;;;;0.50;0.50;;;;;;;3.29;84.49;97655.56;5045711;28;20497;-72
2023/01/16 18:29:43;;;;;;;0.50;0.50;;;;;;;3.22;84.35;97650.59;5062630;28;20048;-70
2023/01/16 18:32:19;;;;;;;0.50;0.50;;;;;;;3.27;84.52;97658.16;5062272;28;20025;-71
2023/01/16 18:34:48;;;;;;;0.47;0.47;;;;;;;3.27;84.69;97650.47;5045723;28;20033;-71
2023/01/16 18:37:14;;;;;;;0.50;0.50;;;;;;;3.28;83.98;97647.03;5045625;28;20025;-71
2023/01/16 19:02:26;;;;;;;0.50;0.50;;;;;;;3.33;82.55;97640.06;5104902;28;20046;-71
2023/01/16 19:04:52;;;;;;;0.60;0.60;;;;;;;3.53;82.45;97640.47;5066808;28;20036;-69